Time;durP1;ratioP1;P1;durP2;ratioP2;P2;SDS_P1;SDS_P2;PMS_P1;PMS_P2;Temp;Humidity;BMP_temperature;BMP_pressure;BME280_temperature;BME280_humidity;BME280_pressure;Samples;Min_cycle;Max_cycle;Signal;HPM_P1;HPM_P2
2022/01/01 00:00:41;;;;;;;4.88;3.65;;;;;;;;;;5025265;28;20040;-33
2022/01/01 00:03:07;;;;;;;4.28;3.50;;;;;;;;;;5024959;28;20025;-32
2022/01/01 00:05:33;;;;;;;4.88;3.85;;;;;;;;;;5024817;28;20502;-30
2022/01/01 00:08:00;;;;;;;5.00;3.60;;;;;;;;;;5024596;28;20054;-33
2022/01/01 00:10:26;;;;;;;5.15;3.67;;;;;;;;;;5024955;28;20108;-32
2022/01/01 00:12:51;;;;;;;4.88;3.70;;;;;;;;;;5024935;28;20108;-34
2022/01/01 00:15:18;;;;;;;4.80;3.40;;;;;;;;;;5024672;28;20476;-36
2022/01/01 00:17:43;;;;;;;4.80;3.60;;;;;;;;;;5024590;28;20048;-33
2022/01/01 00:20:09;;;;;;;5.13;3.90;;;;;;;;;;5024415;28;20022;-32
2022/01/01 00:22:36;;;;;;;5.20;3.47;;;;;;;;;;5024674;28;20033;-34
2022/01/01 00:25:02;;;;;;;4.82;3.60;;;;;;;;;;5024572;28;20029;-32
2022/01/01 00:27:28;;;;;;;3.88;3.00;;;;;;;;;;5024701;28;20985;-30
2022/01/01 00:29:54;;;;;;;4.50;3.10;;;;;;;;;;5024280;28;20037;-35
2022/01/01 00:32:19;;;;;;;4.32;3.30;;;;;;;;;;5024806;28;20033;-31
2022/01/01 00:34:45;;;;;;;4.28;3.40;;;;;;;;;;5024342;28;20147;-30
2022/01/01 00:37:10;;;;;;;4.60;3.47;;;;;;;;;;5024603;28;20136;-32
2022/01/01 00:39:36;;;;;;;4.40;3.42;;;;;;;;;;5024505;28;20040;-34
2022/01/01 00:42:01;;;;;;;4.65;3.70;;;;;;;;;;5024066;28;20034;-31
2022/01/01 00:44:30;;;;;;;5.40;3.55;;;;;;;;;;5024131;28;20026;-33
2022/01/01 00:46:56;;;;;;;4.38;3.28;;;;;;;;;;5024400;28;20025;-32
2022/01/01 00:49:22;;;;;;;3.70;3.30;;;;;;;;;;5024114;28;20033;-34
2022/01/01 00:51:47;;;;;;;3.95;3.20;;;;;;;;;;5023804;28;20025;-32
2022/01/01 00:54:13;;;;;;;4.50;3.30;;;;;;;;;;5023676;28;20037;-34
2022/01/01 00:56:38;;;;;;;4.60;3.42;;;;;;;;;;5024044;28;20625;-29
2022/01/01 00:59:04;;;;;;;3.83;3.05;;;;;;;;;;5023783;28;20175;-31
2022/01/01 01:01:29;;;;;;;3.95;3.20;;;;;;;;;;5022827;28;20034;-30
2022/01/01 01:03:55;;;;;;;4.03;3.22;;;;;;;;;;5023582;28;20025;-34
2022/01/01 01:06:20;;;;;;;3.55;3.13;;;;;;;;;;5023749;28;20036;-32
2022/01/01 01:08:46;;;;;;;3.60;2.90;;;;;;;;;;5023299;28;20573;-33
2022/01/01 01:11:11;;;;;;;3.70;3.03;;;;;;;;;;5023718;28;20029;-32
2022/01/01 01:13:40;;;;;;;3.80;3.17;;;;;;;;;;5023638;28;20103;-33
2022/01/01 01:16:05;;;;;;;4.20;3.00;;;;;;;;;;5023560;28;20492;-32
2022/01/01 01:18:31;;;;;;;4.35;3.40;;;;;;;;;;5023616;28;20036;-32
2022/01/01 01:20:56;;;;;;;3.88;2.88;;;;;;;;;;5023548;28;20029;-34
2022/01/01 01:23:22;;;;;;;4.25;3.10;;;;;;;;;;5023522;28;20052;-34
2022/01/01 01:25:47;;;;;;;4.10;3.03;;;;;;;;;;5023481;28;20086;-30
2022/01/01 01:28:14;;;;;;;3.30;2.47;;;;;;;;;;5023516;28;20411;-32
2022/01/01 01:30:40;;;;;;;3.95;2.92;;;;;;;;;;5023075;28;20149;-31
2022/01/01 01:33:06;;;;;;;4.18;3.28;;;;;;;;;;5023223;28;20037;-33
2022/01/01 01:35:32;;;;;;;5.53;2.85;;;;;;;;;;5023502;28;20033;-34
2022/01/01 01:37:57;;;;;;;4.30;3.15;;;;;;;;;;5023006;28;20040;-35
2022/01/01 01:40:23;;;;;;;3.60;2.78;;;;;;;;;;5023183;28;20151;-34
2022/01/01 01:42:48;;;;;;;3.50;2.90;;;;;;;;;;5023471;28;20060;-30
2022/01/01 01:45:19;;;;;;;3.08;2.78;;;;;;;;;;5023572;28;20511;-29
2022/01/01 01:47:45;;;;;;;3.75;3.00;;;;;;;;;;5022984;28;20033;-36
2022/01/01 01:50:11;;;;;;;2.78;2.47;;;;;;;;;;5022806;28;20033;-36
2022/01/01 01:52:37;;;;;;;3.40;2.70;;;;;;;;;;5023391;28;20045;-31
2022/01/01 01:55:10;;;;;;;3.80;3.10;;;;;;;;;;5022945;28;20420;-31
2022/01/01 01:57:36;;;;;;;4.10;3.10;;;;;;;;;;5022948;28;20079;-30
2022/01/01 02:00:04;;;;;;;3.13;2.50;;;;;;;;;;5023091;28;20041;-34
2022/01/01 02:02:30;;;;;;;2.90;2.30;;;;;;;;;;5022804;28;20029;-33
2022/01/01 02:04:55;;;;;;;3.38;2.92;;;;;;;;;;5022758;28;20036;-30
2022/01/01 02:07:21;;;;;;;3.83;2.83;;;;;;;;;;5022335;28;20021;-34
2022/01/01 02:09:46;;;;;;;3.58;2.78;;;;;;;;;;5022890;28;20479;-33
2022/01/01 02:12:12;;;;;;;3.25;2.50;;;;;;;;;;5021858;28;20072;-32
2022/01/01 02:17:24;;;;;;;4.28;2.83;;;;;;;;;;5029110;28;20043;-33
2022/01/01 02:20:01;;;;;;;3.88;2.80;;;;;;;;;;5028959;28;20393;-33
2022/01/01 02:22:35;;;;;;;3.42;2.58;;;;;;;;;;5029519;28;20160;-30
2022/01/01 02:25:00;;;;;;;3.95;3.05;;;;;;;;;;5029275;28;20031;-30
2022/01/01 02:27:26;;;;;;;3.13;2.50;;;;;;;;;;5029487;28;20033;-31
2022/01/01 02:29:51;;;;;;;3.75;2.85;;;;;;;;;;5029670;28;20041;-33
2022/01/01 02:32:18;;;;;;;3.47;2.85;;;;;;;;;;5028904;28;20040;-36
2022/01/01 02:34:43;;;;;;;4.28;3.10;;;;;;;;;;5029253;28;20030;-37
2022/01/01 02:37:09;;;;;;;4.15;2.88;;;;;;;;;;5029145;28;20795;-32
2022/01/01 02:39:34;;;;;;;3.10;2.80;;;;;;;;;;5029085;28;20029;-32
2022/01/01 02:42:00;;;;;;;3.97;2.72;;;;;;;;;;5029219;28;20158;-32
2022/01/01 02:44:27;;;;;;;4.43;3.03;;;;;;;;;;5028771;28;20407;-32
2022/01/01 02:46:53;;;;;;;3.42;2.78;;;;;;;;;;5047938;28;20029;-29
2022/01/01 02:49:19;;;;;;;3.42;2.70;;;;;;;;;;5048816;28;20047;-31
2022/01/01 02:51:44;;;;;;;2.88;2.38;;;;;;;;;;5048992;28;20036;-30
2022/01/01 02:54:09;;;;;;;3.70;2.90;;;;;;;;;;5049058;28;20562;-33
2022/01/01 02:56:35;;;;;;;3.95;2.70;;;;;;;;;;5042547;28;20108;-32
2022/01/01 02:59:01;;;;;;;3.65;2.72;;;;;;;;;;5028946;28;20498;-33
2022/01/01 03:01:29;;;;;;;3.08;2.58;;;;;;;;;;5029217;28;20511;-31
2022/01/01 03:03:54;;;;;;;3.10;2.80;;;;;;;;;;5028733;28;20037;-35
2022/01/01 03:06:20;;;;;;;3.70;2.53;;;;;;;;;;5028975;28;20040;-28
2022/01/01 03:08:54;;;;;;;3.92;2.88;;;;;;;;;;5029096;28;20045;-28
2022/01/01 03:11:20;;;;;;;3.55;2.65;;;;;;;;;;5028743;28;20025;-29
2022/01/01 03:13:45;;;;;;;3.30;2.92;;;;;;;;;;5028878;28;20029;-32
2022/01/01 03:16:11;;;;;;;2.72;2.40;;;;;;;;;;5028629;28;20038;-31
2022/01/01 03:18:37;;;;;;;2.95;2.60;;;;;;;;;;5028805;28;20044;-31
2022/01/01 03:21:03;;;;;;;3.10;2.55;;;;;;;;;;5028900;28;20052;-31
2022/01/01 03:23:28;;;;;;;3.42;2.75;;;;;;;;;;5028469;28;20491;-34
2022/01/01 03:25:54;;;;;;;3.30;2.75;;;;;;;;;;5024566;28;20029;-33
2022/01/01 03:28:19;;;;;;;3.90;2.60;;;;;;;;;;5025352;28;20118;-31
2022/01/01 03:30:45;;;;;;;4.18;3.03;;;;;;;;;;5025332;28;20037;-33
2022/01/01 03:33:10;;;;;;;3.20;2.50;;;;;;;;;;5025078;28;20030;-31
2022/01/01 03:35:36;;;;;;;4.20;3.00;;;;;;;;;;5024154;28;20033;-34
2022/01/01 03:38:01;;;;;;;2.83;2.15;;;;;;;;;;5024941;28;20026;-34
2022/01/01 03:40:27;;;;;;;2.65;2.13;;;;;;;;;;5025214;28;20049;-32
2022/01/01 03:42:52;;;;;;;3.20;2.63;;;;;;;;;;5025200;28;20038;-34
2022/01/01 03:45:18;;;;;;;3.05;2.60;;;;;;;;;;5025492;28;20029;-33
2022/01/01 03:47:43;;;;;;;3.08;2.25;;;;;;;;;;5024845;28;20355;-31
2022/01/01 03:50:09;;;;;;;3.13;2.58;;;;;;;;;;5024949;28;20064;-31
2022/01/01 03:52:35;;;;;;;2.92;2.60;;;;;;;;;;5025225;28;20658;-35
2022/01/01 03:55:01;;;;;;;3.08;2.50;;;;;;;;;;5023560;28;20495;-32
2022/01/01 03:57:26;;;;;;;3.35;2.70;;;;;;;;;;5024859;28;20546;-31
2022/01/01 03:59:52;;;;;;;3.17;2.42;;;;;;;;;;5025006;28;20017;-32
2022/01/01 04:02:17;;;;;;;2.67;2.22;;;;;;;;;;5025062;28;20033;-30
2022/01/01 04:04:43;;;;;;;2.95;2.17;;;;;;;;;;5025183;28;20029;-30
2022/01/01 04:07:09;;;;;;;2.88;2.35;;;;;;;;;;5024732;28;20025;-32
2022/01/01 04:09:35;;;;;;;3.25;2.47;;;;;;;;;;5024523;28;20060;-31
2022/01/01 04:12:01;;;;;;;3.00;2.30;;;;;;;;;;5024598;28;20364;-29
2022/01/01 04:14:27;;;;;;;3.28;2.97;;;;;;;;;;5024595;28;20029;-32
2022/01/01 04:16:53;;;;;;;2.67;2.33;;;;;;;;;;5024412;28;20079;-33
2022/01/01 04:19:22;;;;;;;3.38;2.60;;;;;;;;;;5024333;28;20025;-34
2022/01/01 04:21:48;;;;;;;2.45;2.10;;;;;;;;;;5024405;28;20091;-31
2022/01/01 04:24:13;;;;;;;3.90;2.50;;;;;;;;;;5024255;28;20486;-31
2022/01/01 04:26:39;;;;;;;2.97;2.38;;;;;;;;;;5024553;28;20030;-32
2022/01/01 04:29:05;;;;;;;2.42;2.10;;;;;;;;;;5024412;28;20080;-31
2022/01/01 04:31:31;;;;;;;2.33;2.08;;;;;;;;;;5024127;28;20048;-31
2022/01/01 04:33:56;;;;;;;2.65;2.25;;;;;;;;;;5024178;28;20029;-36
2022/01/01 04:36:23;;;;;;;3.30;2.35;;;;;;;;;;5024658;28;20030;-32
2022/01/01 04:38:48;;;;;;;2.78;2.38;;;;;;;;;;5024300;28;20061;-31
2022/01/01 04:41:15;;;;;;;3.63;2.40;;;;;;;;;;5024046;28;20116;-34
2022/01/01 04:43:40;;;;;;;2.90;2.60;;;;;;;;;;5024038;28;20038;-30
2022/01/01 04:46:07;;;;;;;2.58;2.10;;;;;;;;;;5037824;28;20062;-31
2022/01/01 04:48:36;;;;;;;2.42;1.92;;;;;;;;;;5043767;28;20031;-29
2022/01/01 04:51:06;;;;;;;2.83;1.90;;;;;;;;;;5043513;28;20037;-34
2022/01/01 04:53:33;;;;;;;2.78;2.10;;;;;;;;;;5043903;28;20032;-31
2022/01/01 04:56:02;;;;;;;2.40;2.05;;;;;;;;;;5043678;28;20576;-28
2022/01/01 04:58:28;;;;;;;2.53;2.13;;;;;;;;;;5043513;28;20052;-31
2022/01/01 05:00:53;;;;;;;2.33;1.98;;;;;;;;;;5043351;28;20279;-35
2022/01/01 05:03:19;;;;;;;3.25;2.40;;;;;;;;;;5043863;28;20519;-29
2022/01/01 05:05:44;;;;;;;2.70;2.13;;;;;;;;;;5042028;28;20067;-34
2022/01/01 05:08:10;;;;;;;2.70;2.00;;;;;;;;;;5043469;28;20100;-28
2022/01/01 05:10:35;;;;;;;2.80;2.20;;;;;;;;;;5043770;28;20424;-28
2022/01/01 05:13:01;;;;;;;2.70;2.10;;;;;;;;;;5043337;28;20045;-31
2022/01/01 05:15:27;;;;;;;2.33;1.85;;;;;;;;;;5043421;28;20029;-31
2022/01/01 05:17:52;;;;;;;2.72;2.20;;;;;;;;;;5043382;28;20060;-34
2022/01/01 05:20:18;;;;;;;2.20;1.77;;;;;;;;;;5043048;28;20033;-30
2022/01/01 05:22:43;;;;;;;2.40;1.90;;;;;;;;;;5043450;28;20043;-34
2022/01/01 05:25:09;;;;;;;2.13;1.83;;;;;;;;;;5043183;28;20437;-31
2022/01/01 05:27:36;;;;;;;2.13;1.80;;;;;;;;;;5043009;28;20033;-31
2022/01/01 05:30:05;;;;;;;2.28;1.70;;;;;;;;;;5042915;28;20039;-32
2022/01/01 05:32:31;;;;;;;2.30;2.00;;;;;;;;;;5043224;28;20091;-34
2022/01/01 05:34:56;;;;;;;2.30;1.80;;;;;;;;;;5043006;28;20025;-31
2022/01/01 05:37:22;;;;;;;2.78;1.92;;;;;;;;;;5042999;28;20131;-29
2022/01/01 05:39:47;;;;;;;2.08;1.88;;;;;;;;;;5024284;28;20402;-30
2022/01/01 05:42:13;;;;;;;1.98;1.70;;;;;;;;;;5022990;28;20048;-31
2022/01/01 05:44:38;;;;;;;2.25;2.03;;;;;;;;;;5023397;28;20029;-33
2022/01/01 05:47:04;;;;;;;2.55;1.90;;;;;;;;;;5022584;28;20056;-31
2022/01/01 05:49:30;;;;;;;2.83;2.13;;;;;;;;;;5022887;28;20419;-35
2022/01/01 05:51:55;;;;;;;2.90;2.13;;;;;;;;;;5022869;28;20033;-37
2022/01/01 05:54:21;;;;;;;2.15;1.95;;;;;;;;;;5022886;28;20037;-36
2022/01/01 05:56:46;;;;;;;2.00;1.80;;;;;;;;;;5022801;28;20029;-34
2022/01/01 05:59:12;;;;;;;2.08;1.63;;;;;;;;;;5022830;28;20040;-32
2022/01/01 06:01:37;;;;;;;2.30;2.03;;;;;;;;;;5022952;28;20454;-31
2022/01/01 06:04:03;;;;;;;2.70;1.75;;;;;;;;;;5022596;28;20507;-32
2022/01/01 06:06:29;;;;;;;2.60;1.80;;;;;;;;;;5022934;28;20025;-34
2022/01/01 06:08:54;;;;;;;2.38;1.83;;;;;;;;;;5022609;28;20435;-32
2022/01/01 06:11:19;;;;;;;2.60;1.90;;;;;;;;;;5022491;28;20052;-32
2022/01/01 06:13:45;;;;;;;2.92;1.88;;;;;;;;;;5022546;28;20021;-35
2022/01/01 06:16:11;;;;;;;2.15;1.95;;;;;;;;;;5022430;28;20585;-33
2022/01/01 06:18:36;;;;;;;2.40;2.00;;;;;;;;;;5022513;28;20025;-36
2022/01/01 06:21:03;;;;;;;2.30;1.80;;;;;;;;;;5022461;28;20025;-31
2022/01/01 06:23:29;;;;;;;2.03;1.60;;;;;;;;;;5022975;28;20049;-34
2022/01/01 06:25:54;;;;;;;2.22;1.92;;;;;;;;;;5022607;28;20026;-31
2022/01/01 06:28:20;;;;;;;2.22;1.73;;;;;;;;;;5022707;28;20415;-29
2022/01/01 06:30:45;;;;;;;2.17;1.77;;;;;;;;;;5022165;28;20259;-32
2022/01/01 06:33:15;;;;;;;2.10;1.67;;;;;;;;;;5022582;28;20032;-34
2022/01/01 06:35:45;;;;;;;1.95;1.63;;;;;;;;;;5022703;28;20099;-31
2022/01/01 06:38:10;;;;;;;2.40;1.70;;;;;;;;;;5022385;28;20033;-32
2022/01/01 06:40:36;;;;;;;2.40;1.90;;;;;;;;;;5022401;28;20036;-32
2022/01/01 06:43:02;;;;;;;2.15;1.80;;;;;;;;;;5022367;28;20033;-29
2022/01/01 06:45:27;;;;;;;1.70;1.48;;;;;;;;;;5022578;28;20037;-32
2022/01/01 06:47:53;;;;;;;1.90;1.60;;;;;;;;;;5022477;28;20029;-31
2022/01/01 06:50:18;;;;;;;1.88;1.48;;;;;;;;;;5022256;28;20589;-32
2022/01/01 06:52:44;;;;;;;2.17;1.73;;;;;;;;;;5022692;28;20028;-37
2022/01/01 06:55:11;;;;;;;2.08;1.50;;;;;;;;;;5022121;28;20064;-33
2022/01/01 06:57:36;;;;;;;1.98;1.55;;;;;;;;;;5031605;28;20628;-30
2022/01/01 07:00:03;;;;;;;1.80;1.40;;;;;;;;;;5043193;28;20104;-30
2022/01/01 07:02:28;;;;;;;1.88;1.50;;;;;;;;;;5046138;28;20025;-29
2022/01/01 07:04:54;;;;;;;1.63;1.48;;;;;;;;;;5046106;28;20573;-34
2022/01/01 07:07:19;;;;;;;1.38;1.23;;;;;;;;;;5045727;28;20021;-33
2022/01/01 07:09:45;;;;;;;1.50;1.40;;;;;;;;;;5046045;28;20033;-30
2022/01/01 07:12:11;;;;;;;1.50;1.30;;;;;;;;;;5045782;28;20059;-31
2022/01/01 07:14:37;;;;;;;1.98;1.42;;;;;;;;;;5045549;28;20029;-35
2022/01/01 07:17:03;;;;;;;2.00;1.63;;;;;;;;;;5045599;28;20039;-33
2022/01/01 07:19:28;;;;;;;1.60;1.30;;;;;;;;;;5045683;28;20033;-33
2022/01/01 07:21:56;;;;;;;1.70;1.40;;;;;;;;;;5036318;28;20025;-35
2022/01/01 07:24:21;;;;;;;2.30;1.70;;;;;;;;;;5025636;28;20034;-30
2022/01/01 07:26:48;;;;;;;1.80;1.20;;;;;;;;;;5025414;28;20060;-33
2022/01/01 07:29:13;;;;;;;1.58;1.30;;;;;;;;;;5025204;28;20095;-31
2022/01/01 07:31:39;;;;;;;2.05;1.52;;;;;;;;;;5025435;28;20037;-30
2022/01/01 07:34:04;;;;;;;1.70;1.50;;;;;;;;;;5025338;28;20107;-31
2022/01/01 07:36:30;;;;;;;1.83;1.63;;;;;;;;;;5025596;28;20100;-33
2022/01/01 07:38:55;;;;;;;1.90;1.27;;;;;;;;;;5025279;28;20040;-36
2022/01/01 07:41:21;;;;;;;1.42;1.33;;;;;;;;;;5025438;28;20507;-33
2022/01/01 07:43:46;;;;;;;1.70;1.35;;;;;;;;;;5025183;28;20029;-37
2022/01/01 07:46:12;;;;;;;1.45;1.10;;;;;;;;;;5025724;28;20026;-37
2022/01/01 07:48:37;;;;;;;1.77;1.38;;;;;;;;;;5025693;28;20029;-33
2022/01/01 07:51:03;;;;;;;1.23;1.10;;;;;;;;;;5025081;28;20048;-34
2022/01/01 07:53:28;;;;;;;1.58;1.17;;;;;;;;;;5025068;28;20488;-31
2022/01/01 07:55:54;;;;;;;1.73;1.23;;;;;;;;;;5024807;28;20041;-31
2022/01/01 07:58:19;;;;;;;1.15;1.05;;;;;;;;;;5025042;28;20487;-34
2022/01/01 08:00:45;;;;;;;2.10;1.40;;;;;;;;;;5024907;28;20106;-29
2022/01/01 08:03:11;;;;;;;1.52;1.30;;;;;;;;;;5022990;28;20510;-33
2022/01/01 08:05:37;;;;;;;1.65;1.30;;;;;;;;;;5025053;28;20034;-30
2022/01/01 08:08:03;;;;;;;1.70;1.30;;;;;;;;;;5024553;28;20064;-32
2022/01/01 08:10:29;;;;;;;1.45;1.20;;;;;;;;;;5024490;28;20037;-29
2022/01/01 08:12:55;;;;;;;1.77;1.30;;;;;;;;;;5024652;28;20726;-32
2022/01/01 08:15:21;;;;;;;1.52;1.20;;;;;;;;;;5024682;28;20029;-33
2022/01/01 08:17:47;;;;;;;1.25;1.00;;;;;;;;;;5024960;28;20120;-28
2022/01/01 08:20:12;;;;;;;1.50;1.30;;;;;;;;;;5024381;28;20033;-31
2022/01/01 08:22:38;;;;;;;1.52;1.40;;;;;;;;;;5024417;28;20033;-34
2022/01/01 08:25:04;;;;;;;1.52;1.20;;;;;;;;;;5024453;28;20041;-31
2022/01/01 08:27:29;;;;;;;1.77;1.45;;;;;;;;;;5024716;28;20036;-32
2022/01/01 08:29:55;;;;;;;1.52;1.42;;;;;;;;;;5024113;28;20036;-34
2022/01/01 08:32:21;;;;;;;1.55;1.30;;;;;;;;;;5024367;28;20120;-28
2022/01/01 08:34:46;;;;;;;1.70;1.40;;;;;;;;;;5024256;28;20559;-32
2022/01/01 08:37:12;;;;;;;1.52;1.30;;;;;;;;;;5024297;28;20037;-30
2022/01/01 08:39:37;;;;;;;2.25;1.58;;;;;;;;;;5023874;28;20495;-33
2022/01/01 08:42:05;;;;;;;2.08;1.70;;;;;;;;;;5022527;28;20045;-33
2022/01/01 08:44:31;;;;;;;2.05;1.58;;;;;;;;;;5026393;28;20029;-31
2022/01/01 08:46:57;;;;;;;1.40;1.30;;;;;;;;;;5044081;28;20041;-33
2022/01/01 08:49:22;;;;;;;2.05;1.70;;;;;;;;;;5043702;28;20478;-29
2022/01/01 08:51:48;;;;;;;2.15;1.50;;;;;;;;;;5043587;28;20473;-30
2022/01/01 08:54:14;;;;;;;2.13;1.50;;;;;;;;;;5043554;28;20029;-29
2022/01/01 08:56:40;;;;;;;2.42;1.70;;;;;;;;;;5043547;28;20120;-31
2022/01/01 08:59:05;;;;;;;2.28;1.67;;;;;;;;;;5043457;28;20071;-30
2022/01/01 09:01:31;;;;;;;2.30;1.70;;;;;;;;;;5043661;28;20766;-33
2022/01/01 09:03:57;;;;;;;1.95;1.60;;;;;;;;;;5043584;28;20514;-31
2022/01/01 09:06:23;;;;;;;2.40;1.60;;;;;;;;;;5043623;28;20388;-35
2022/01/01 09:08:48;;;;;;;1.85;1.52;;;;;;;;;;5043426;28;20091;-35
2022/01/01 09:11:14;;;;;;;1.80;1.30;;;;;;;;;;5043415;28;20506;-32
2022/01/01 09:13:42;;;;;;;2.60;1.77;;;;;;;;;;5043487;28;20131;-31
2022/01/01 09:16:12;;;;;;;2.17;1.73;;;;;;;;;;5043333;28;20074;-34
2022/01/01 09:18:39;;;;;;;2.58;2.00;;;;;;;;;;5043106;28;20037;-32
2022/01/01 09:21:04;;;;;;;2.55;1.55;;;;;;;;;;5041885;28;20065;-30
2022/01/01 09:23:30;;;;;;;2.20;1.52;;;;;;;;;;5042275;28;20052;-29
2022/01/01 09:25:55;;;;;;;2.20;1.65;;;;;;;;;;5041586;28;20040;-31
2022/01/01 09:28:21;;;;;;;2.53;1.60;;;;;;;;;;5043283;28;20033;-32
2022/01/01 09:30:46;;;;;;;2.90;1.88;;;;;;;;;;5042909;28;20029;-32
2022/01/01 09:33:12;;;;;;;1.92;1.42;;;;;;;;;;5043081;28;20187;-33
2022/01/01 09:35:38;;;;;;;1.83;1.50;;;;;;;;;;5043500;28;20098;-29
2022/01/01 09:38:04;;;;;;;2.75;1.48;;;;;;;;;;5042922;28;20503;-30
2022/01/01 09:40:30;;;;;;;2.85;1.80;;;;;;;;;;5042897;28;20060;-31
2022/01/01 09:42:55;;;;;;;2.53;1.75;;;;;;;;;;5041674;28;20039;-32
2022/01/01 09:45:21;;;;;;;2.70;1.70;;;;;;;;;;5030388;28;20045;-29
2022/01/01 09:47:47;;;;;;;1.77;1.52;;;;;;;;;;5023037;28;20064;-34
2022/01/01 09:50:12;;;;;;;2.25;1.60;;;;;;;;;;5021283;28;20125;-31
2022/01/01 09:52:39;;;;;;;1.90;1.40;;;;;;;;;;5022966;28;20578;-33
2022/01/01 09:55:05;;;;;;;2.42;1.70;;;;;;;;;;5023020;28;20112;-33
2022/01/01 09:57:30;;;;;;;2.50;1.83;;;;;;;;;;5022596;28;20853;-35
2022/01/01 09:59:56;;;;;;;1.73;1.45;;;;;;;;;;5022703;28;20056;-32
2022/01/01 10:02:21;;;;;;;1.90;1.40;;;;;;;;;;5022708;28;20061;-36
2022/01/01 10:04:50;;;;;;;2.05;1.38;;;;;;;;;;5022890;28;20033;-31
2022/01/01 10:07:16;;;;;;;2.10;1.45;;;;;;;;;;5022590;28;20029;-34
2022/01/01 10:09:42;;;;;;;1.73;1.38;;;;;;;;;;5022574;28;20045;-32
2022/01/01 10:12:10;;;;;;;2.33;1.70;;;;;;;;;;5030548;28;20036;-30
2022/01/01 10:14:43;;;;;;;2.05;1.40;;;;;;;;;;5042640;28;20029;-34
2022/01/01 10:17:15;;;;;;;;;;;;;;;;;;5043324;28;20553;-34
2022/01/01 10:19:40;;;;;;;1.90;1.50;;;;;;;;;;5042581;28;20369;-30
2022/01/01 10:22:07;;;;;;;2.00;1.52;;;;;;;;;;5042577;28;20603;-33
2022/01/01 10:30:01;;;;;;;1.67;1.27;;;;;;;;;;5042332;28;20465;-35
2022/01/01 10:32:26;;;;;;;1.90;1.50;;;;;;;;;;5042404;28;20032;-31
2022/01/01 10:34:51;;;;;;;2.25;1.52;;;;;;;;;;5045123;28;20066;-34
2022/01/01 10:37:17;;;;;;;1.33;1.10;;;;;;;;;;5046356;28;20024;-32
2022/01/01 10:39:52;;;;;;;1.55;1.33;;;;;;;;;;5045959;28;20032;-32
2022/01/01 10:42:18;;;;;;;2.10;1.42;;;;;;;;;;5046038;28;20033;-30
2022/01/01 10:44:51;;;;;;;2.22;1.58;;;;;;;;;;5045320;28;20180;-35
2022/01/01 10:47:21;;;;;;;1.73;1.30;;;;;;;;;;5046475;28;20075;-35
2022/01/01 10:52:23;;;;;;;1.85;1.33;;;;;;;;;;5046057;28;20763;-36
2022/01/01 10:54:53;;;;;;;1.80;1.17;;;;;;;;;;5046022;28;20043;-32
2022/01/01 10:57:26;;;;;;;2.00;1.25;;;;;;;;;;5046247;28;20029;-32
2022/01/01 11:00:08;;;;;;;1.45;1.15;;;;;;;;;;5045774;28;20025;-33
2022/01/01 11:02:34;;;;;;;2.00;1.52;;;;;;;;;;5044648;28;20067;-31
2022/01/01 11:05:00;;;;;;;1.83;1.48;;;;;;;;;;5045870;28;20061;-32
2022/01/01 11:07:27;;;;;;;1.60;1.40;;;;;;;;;;5045414;28;20407;-34
2022/01/01 11:09:52;;;;;;;1.30;1.10;;;;;;;;;;5045526;28;20068;-32
2022/01/01 11:12:20;;;;;;;1.90;1.33;;;;;;;;;;5037932;28;20153;-32
2022/01/01 11:14:45;;;;;;;1.67;1.10;;;;;;;;;;5025835;28;20083;-34
2022/01/01 11:17:11;;;;;;;1.50;1.20;;;;;;;;;;5024091;28;20368;-31
2022/01/01 11:19:36;;;;;;;1.35;1.23;;;;;;;;;;5025600;28;20018;-31
2022/01/01 11:22:02;;;;;;;2.10;1.45;;;;;;;;;;5024321;28;20034;-29
2022/01/01 11:24:30;;;;;;;1.70;1.45;;;;;;;;;;5023972;28;20842;-31
2022/01/01 11:26:55;;;;;;;1.50;1.23;;;;;;;;;;5025594;28;20035;-33
2022/01/01 11:29:21;;;;;;;2.33;1.67;;;;;;;;;;5025321;28;20029;-30
2022/01/01 11:31:47;;;;;;;1.67;1.30;;;;;;;;;;5025294;28;20041;-30
2022/01/01 11:34:13;;;;;;;1.67;1.20;;;;;;;;;;5023872;28;20052;-30
2022/01/01 11:36:38;;;;;;;1.65;1.27;;;;;;;;;;5023983;28;20072;-32
2022/01/01 11:39:07;;;;;;;2.38;1.63;;;;;;;;;;5023770;28;20076;-34
2022/01/01 11:41:41;;;;;;;1.85;1.40;;;;;;;;;;5023513;28;20037;-37
2022/01/01 11:44:25;;;;;;;2.05;1.35;;;;;;;;;;5025875;28;20025;-32
2022/01/01 11:47:07;;;;;;;1.40;1.10;;;;;;;;;;5024758;28;20025;-29
2022/01/01 11:49:33;;;;;;;1.70;1.30;;;;;;;;;;5023508;28;20029;-30
2022/01/01 11:51:59;;;;;;;1.52;1.23;;;;;;;;;;5024960;28;20111;-32
2022/01/01 11:54:31;;;;;;;2.17;1.50;;;;;;;;;;5023753;28;20172;-31
2022/01/01 11:57:07;;;;;;;1.30;1.10;;;;;;;;;;5025279;28;20029;-33
2022/01/01 11:59:40;;;;;;;1.73;1.30;;;;;;;;;;5025104;28;20076;-33
2022/01/01 12:02:33;;;;;;;1.48;1.25;;;;;;;;;;5025205;28;20036;-31
2022/01/01 12:05:20;;;;;;;1.38;1.20;;;;;;;;;;5024862;28;20546;-32
2022/01/01 12:07:49;;;;;;;2.03;1.30;;;;;;;;;;5024547;28;20053;-34
2022/01/01 12:10:20;;;;;;;1.52;1.20;;;;;;;;;;5024593;28;20025;-33
2022/01/01 12:12:49;;;;;;;1.27;1.05;;;;;;;;;;5024579;28;20037;-36
2022/01/01 12:15:24;;;;;;;1.60;1.17;;;;;;;;;;5024959;28;20546;-33
2022/01/01 12:18:07;;;;;;;1.92;1.40;;;;;;;;;;5024672;28;20092;-31
2022/01/01 12:20:38;;;;;;;;;;;;;;;;;;5007633;28;20113;-28
2022/01/01 12:23:06;;;;;;;1.80;1.42;;;;;;;;;;5024513;28;19959;-33
2022/01/01 12:25:32;;;;;;;1.58;1.27;;;;;;;;;;5024658;28;20027;-34
2022/01/01 12:28:00;;;;;;;1.65;1.25;;;;;;;;;;5024223;28;20106;-33
2022/01/01 12:30:43;;;;;;;1.70;1.40;;;;;;;;;;5024085;28;20444;-36
2022/01/01 12:33:10;;;;;;;1.70;1.30;;;;;;;;;;5024421;28;20059;-31
2022/01/01 12:35:48;;;;;;;1.65;1.23;;;;;;;;;;5024460;28;20363;-32
2022/01/01 12:38:34;;;;;;;1.88;1.42;;;;;;;;;;5023070;28;20315;-31
2022/01/01 12:41:04;;;;;;;1.70;1.17;;;;;;;;;;5023690;28;20048;-36
2022/01/01 12:43:56;;;;;;;1.35;1.10;;;;;;;;;;5023938;28;20030;-29
2022/01/01 12:46:32;;;;;;;2.00;1.60;;;;;;;;;;5023276;28;20764;-31
2022/01/01 12:48:59;;;;;;;1.65;1.20;;;;;;;;;;5024196;28;20071;-34
2022/01/01 12:51:28;;;;;;;2.08;1.48;;;;;;;;;;5024168;28;20478;-30
2022/01/01 12:53:59;;;;;;;1.60;1.20;;;;;;;;;;5023873;28;20030;-29
2022/01/01 12:56:25;;;;;;;2.30;1.60;;;;;;;;;;5023852;28;20042;-31
2022/01/01 12:58:55;;;;;;;1.65;1.23;;;;;;;;;;5024073;28;20670;-34
2022/01/01 13:01:25;;;;;;;1.08;0.93;;;;;;;;;;5023638;28;20501;-31
2022/01/01 13:03:54;;;;;;;1.98;1.42;;;;;;;;;;5023471;28;20022;-30
2022/01/01 13:06:38;;;;;;;1.63;1.40;;;;;;;;;;5023443;28;20033;-31
2022/01/01 13:09:09;;;;;;;1.65;1.20;;;;;;;;;;5023491;28;20060;-32
2022/01/01 13:11:35;;;;;;;2.50;1.15;;;;;;;;;;5023551;28;20100;-30
2022/01/01 13:14:01;;;;;;;1.70;1.23;;;;;;;;;;5023804;28;20108;-34
2022/01/01 13:16:27;;;;;;;1.65;1.15;;;;;;;;;;5023112;28;20120;-33
2022/01/01 13:18:52;;;;;;;2.13;1.38;;;;;;;;;;5023809;28;20072;-32
2022/01/01 13:21:18;;;;;;;1.40;1.10;;;;;;;;;;5023343;28;20025;-30
2022/01/01 13:23:44;;;;;;;2.20;1.70;;;;;;;;;;5023543;28;20470;-32
2022/01/01 13:26:10;;;;;;;1.63;1.25;;;;;;;;;;5023334;28;20029;-32
2022/01/01 13:28:36;;;;;;;2.08;1.30;;;;;;;;;;5023407;28;20064;-31
2022/01/01 13:31:03;;;;;;;1.48;1.20;;;;;;;;;;5022982;28;20725;-29
2022/01/01 13:33:29;;;;;;;1.77;1.38;;;;;;;;;;5023356;28;20084;-32
2022/01/01 13:35:58;;;;;;;1.80;1.42;;;;;;;;;;5022954;28;21000;-29
2022/01/01 13:38:25;;;;;;;2.88;1.40;;;;;;;;;;5023166;28;20030;-30
2022/01/01 13:40:53;;;;;;;1.70;1.30;;;;;;;;;;5022979;28;20511;-32
2022/01/01 13:43:18;;;;;;;1.48;1.25;;;;;;;;;;5023059;28;20030;-30
2022/01/01 13:45:44;;;;;;;1.45;1.02;;;;;;;;;;5023919;28;20182;-36
2022/01/01 13:48:11;;;;;;;2.17;1.30;;;;;;;;;;5023184;28;20029;-29
2022/01/01 13:50:43;;;;;;;1.70;1.33;;;;;;;;;;5023115;28;20033;-32
2022/01/01 13:53:09;;;;;;;1.40;1.10;;;;;;;;;;5023072;28;20026;-32
2022/01/01 13:55:35;;;;;;;1.50;1.27;;;;;;;;;;5022852;28;20463;-31
2022/01/01 13:58:03;;;;;;;1.35;1.25;;;;;;;;;;5023055;28;20530;-34
2022/01/01 14:00:29;;;;;;;1.33;1.23;;;;;;;;;;5022939;28;20033;-33
2022/01/01 14:02:55;;;;;;;1.70;1.60;;;;;;;;;;5022618;28;20048;-30
2022/01/01 14:05:20;;;;;;;1.65;1.20;;;;;;;;;;5021192;28;20041;-29
2022/01/01 14:07:46;;;;;;;1.70;1.50;;;;;;;;;;5022663;28;20127;-31
2022/01/01 14:10:16;;;;;;;1.30;1.20;;;;;;;;;;5022295;28;20060;-29
2022/01/01 14:12:43;;;;;;;1.45;1.30;;;;;;;;;;5022672;28;20718;-33
2022/01/01 14:15:12;;;;;;;1.67;1.40;;;;;;;;;;5022451;28;20033;-32
2022/01/01 14:17:58;;;;;;;1.45;1.30;;;;;;;;;;5022669;28;20095;-28
2022/01/01 14:20:23;;;;;;;2.10;1.70;;;;;;;;;;5022407;28;20072;-30
2022/01/01 14:22:49;;;;;;;1.85;1.40;;;;;;;;;;5023121;28;20044;-34
2022/01/01 14:25:14;;;;;;;1.90;1.70;;;;;;;;;;5022447;28;20033;-36
2022/01/01 14:27:40;;;;;;;1.58;1.40;;;;;;;;;;5020719;28;20116;-32
2022/01/01 14:30:07;;;;;;;1.85;1.30;;;;;;;;;;5023203;28;20057;-30
2022/01/01 14:32:32;;;;;;;1.65;1.23;;;;;;;;;;5042174;28;20032;-35
2022/01/01 14:34:58;;;;;;;1.40;1.30;;;;;;;;;;5042556;28;20033;-30
2022/01/01 14:37:23;;;;;;;1.58;1.33;;;;;;;;;;5042340;28;20040;-30
2022/01/01 14:39:49;;;;;;;2.42;1.77;;;;;;;;;;5042417;28;20029;-31
2022/01/01 14:42:15;;;;;;;2.15;1.60;;;;;;;;;;5042275;28;20450;-34
2022/01/01 14:44:40;;;;;;;2.10;1.60;;;;;;;;;;5032848;28;20034;-32
2022/01/01 14:47:20;;;;;;;1.73;1.25;;;;;;;;;;5022537;28;20056;-33
2022/01/01 14:49:47;;;;;;;2.03;1.50;;;;;;;;;;5022509;28;20045;-33
2022/01/01 14:52:33;;;;;;;1.95;1.40;;;;;;;;;;5022367;28;20044;-33